Time;durP1;ratioP1;P1;durP2;ratioP2;P2;SDS_P1;SDS_P2;PMS_P1;PMS_P2;Temp;Humidity;BMP_temperature;BMP_pressure;BME280_temperature;BME280_humidity;BME280_pressure;Samples;Min_cycle;Max_cycle;Signal;HPM_P1;HPM_P2
2021/03/24 00:00:59;;;;;;;26.15;16.00;;;;;;;2.53;100.00;97174.56;5020008;28;20076;-56
2021/03/24 00:03:26;;;;;;;24.30;15.07;;;;;;;2.61;100.00;97164.56;4994505;28;20077;-57
2021/03/24 00:05:54;;;;;;;23.63;15.93;;;;;;;2.80;100.00;97175.75;5024778;28;20072;-58
2021/03/24 00:08:23;;;;;;;29.00;15.77;;;;;;;2.78;100.00;97174.13;4991928;28;20483;-55
2021/03/24 00:10:51;;;;;;;26.52;14.90;;;;;;;2.62;100.00;97181.91;5029708;28;20064;-59
2021/03/24 00:13:19;;;;;;;26.95;16.23;;;;;;;2.87;100.00;97178.88;4996675;28;20081;-57
2021/03/24 00:15:47;;;;;;;24.27;15.35;;;;;;;2.75;100.00;97174.28;5039129;28;20080;-60
2021/03/24 00:18:15;;;;;;;21.98;14.00;;;;;;;2.75;100.00;97180.38;4995831;28;20072;-57
2021/03/24 00:20:44;;;;;;;24.27;15.02;;;;;;;2.80;100.00;97172.31;5028086;28;20470;-59
2021/03/24 00:23:12;;;;;;;24.25;16.00;;;;;;;2.95;100.00;97171.50;5006924;28;20076;-58
2021/03/24 00:25:39;;;;;;;23.88;14.65;;;;;;;2.92;100.00;97170.81;5020616;28;20068;-60
2021/03/24 00:28:08;;;;;;;24.63;15.48;;;;;;;2.68;100.00;97165.13;5026068;28;20061;-54
2021/03/24 00:30:38;;;;;;;22.38;14.60;;;;;;;2.82;100.00;97162.63;4986537;28;20080;-54
2021/03/24 00:33:11;;;;;;;24.17;15.00;;;;;;;2.54;100.00;97169.25;5043010;28;20164;-58
2021/03/24 00:35:39;;;;;;;26.60;15.50;;;;;;;2.77;100.00;97157.66;4994132;28;20081;-58
2021/03/24 00:38:09;;;;;;;28.05;14.52;;;;;;;2.55;100.00;97157.09;5040062;28;20050;-53
2021/03/24 00:40:38;;;;;;;24.83;14.50;;;;;;;2.34;100.00;97159.00;5001778;28;20541;-54
2021/03/24 00:43:06;;;;;;;23.85;14.88;;;;;;;2.48;100.00;97161.78;5032047;28;20065;-55
2021/03/24 00:45:35;;;;;;;23.55;15.80;;;;;;;2.57;100.00;97152.66;5005902;28;20080;-59
2021/03/24 00:48:04;;;;;;;25.15;15.10;;;;;;;2.55;100.00;97151.91;5021694;28;20075;-57
2021/03/24 00:50:34;;;;;;;27.23;16.00;;;;;;;2.45;100.00;97153.28;5007703;28;20542;-59
2021/03/24 00:53:01;;;;;;;24.50;15.50;;;;;;;2.31;100.00;97156.59;5022709;28;20080;-57
2021/03/24 00:55:29;;;;;;;23.05;14.93;;;;;;;2.27;100.00;97147.22;4995138;28;20069;-54
2021/03/24 00:57:56;;;;;;;24.52;15.60;;;;;;;2.33;100.00;97147.75;5028242;28;20065;-59
2021/03/24 01:00:43;;;;;;;27.40;15.50;;;;;;;2.37;100.00;97145.84;5002934;28;20065;-58
2021/03/24 01:03:11;;;;;;;26.83;14.93;;;;;;;2.27;100.00;97145.47;5040828;28;20068;-56
2021/03/24 01:05:42;;;;;;;26.02;14.30;;;;;;;2.05;100.00;97137.03;4993408;28;20073;-56
2021/03/24 01:08:12;;;;;;;24.85;14.93;;;;;;;2.09;100.00;97134.22;5028746;28;20096;-58
2021/03/24 01:10:40;;;;;;;23.05;14.65;;;;;;;2.06;100.00;97130.91;5000130;28;20081;-58
2021/03/24 01:13:09;;;;;;;24.02;14.23;;;;;;;2.05;100.00;97124.03;5032032;28;20072;-54
2021/03/24 01:15:38;;;;;;;22.58;14.35;;;;;;;1.98;100.00;97131.31;5000351;28;20516;-60
2021/03/24 01:18:06;;;;;;;22.52;13.93;;;;;;;1.91;100.00;97124.72;5024999;28;20079;-60
2021/03/24 01:20:38;;;;;;;21.55;14.23;;;;;;;1.90;100.00;97128.25;5009462;28;20096;-54
2021/03/24 01:23:07;;;;;;;23.63;14.48;;;;;;;1.72;100.00;97123.91;5029218;28;20081;-57
2021/03/24 01:25:35;;;;;;;23.13;14.73;;;;;;;1.63;100.00;97122.63;5027727;28;20073;-59
2021/03/24 01:28:05;;;;;;;21.77;13.93;;;;;;;1.56;100.00;97124.66;5026530;28;20068;-58
2021/03/24 01:30:34;;;;;;;22.92;14.95;;;;;;;1.53;100.00;97122.22;5032648;28;20073;-54
2021/03/24 01:33:02;;;;;;;26.73;14.77;;;;;;;1.56;100.00;97134.22;5016492;28;20067;-55
2021/03/24 01:35:30;;;;;;;26.55;15.43;;;;;;;1.56;100.00;97129.88;5027237;28;20467;-59
2021/03/24 01:37:57;;;;;;;24.52;15.23;;;;;;;1.44;100.00;97133.03;5011435;28;20076;-58
2021/03/24 01:40:29;;;;;;;25.48;15.25;;;;;;;1.32;100.00;97131.84;5026445;28;20061;-57
2021/03/24 01:42:57;;;;;;;27.33;14.95;;;;;;;1.19;100.00;97131.56;4993285;28;20080;-58
2021/03/24 01:46:08;;;;;;;24.98;14.65;;;;;;;0.85;100.00;97136.63;5035621;28;20064;-58
2021/03/24 01:48:36;;;;;;;27.02;15.45;;;;;;;0.80;100.00;97138.59;4990386;28;20072;-59
2021/03/24 01:51:05;;;;;;;27.23;15.55;;;;;;;0.69;100.00;97132.13;5028224;28;20065;-56
2021/03/24 01:53:34;;;;;;;26.50;15.60;;;;;;;0.93;100.00;97130.19;4999493;28;20484;-56
2021/03/24 01:56:04;;;;;;;24.13;16.20;;;;;;;1.03;100.00;97134.94;5037088;28;20072;-60
2021/03/24 01:58:32;;;;;;;30.20;16.70;;;;;;;1.04;100.00;97132.28;5003585;28;20061;-57
2021/03/24 02:00:59;;;;;;;26.48;15.57;;;;;;;1.17;100.00;97129.94;5025887;28;20069;-55
2021/03/24 02:03:31;;;;;;;26.23;16.25;;;;;;;1.23;100.00;97129.69;5004320;28;20065;-58
2021/03/24 02:06:04;;;;;;;27.85;17.08;;;;;;;1.29;100.00;97126.81;5023440;28;20076;-60
2021/03/24 02:08:33;;;;;;;26.60;15.95;;;;;;;1.31;100.00;97124.16;4984690;28;20085;-56
2021/03/24 02:11:08;;;;;;;26.73;16.77;;;;;;;1.34;100.00;97123.97;5027583;28;20077;-57
2021/03/24 02:13:43;;;;;;;31.33;16.83;;;;;;;1.18;100.00;97129.06;4989812;28;20539;-58
2021/03/24 02:16:18;;;;;;;26.77;17.42;;;;;;;1.29;100.00;97131.16;5027737;28;20538;-58
2021/03/24 02:18:47;;;;;;;27.13;16.85;;;;;;;1.31;100.00;97130.19;4994112;28;20069;-55
2021/03/24 02:21:18;;;;;;;32.03;16.70;;;;;;;1.15;100.00;97130.03;5036350;28;20069;-58
2021/03/24 02:23:54;;;;;;;28.13;16.75;;;;;;;1.12;100.00;97134.53;5005252;28;20096;-58
2021/03/24 02:26:30;;;;;;;26.00;16.02;;;;;;;1.26;100.00;97137.34;5035344;28;20099;-56
2021/03/24 02:29:01;;;;;;;26.90;15.50;;;;;;;1.33;100.00;97130.09;4999795;28;20567;-58
2021/03/24 02:31:29;;;;;;;24.15;15.85;;;;;;;1.41;100.00;97126.25;5023817;28;20041;-58
2021/03/24 02:33:59;;;;;;;26.27;15.77;;;;;;;1.57;100.00;97126.34;4994867;28;20080;-59
2021/03/24 02:36:27;;;;;;;27.33;16.23;;;;;;;1.60;100.00;97130.56;5023844;28;20069;-56
2021/03/24 02:38:58;;;;;;;26.20;15.20;;;;;;;1.55;100.00;97138.59;5001572;28;20515;-52
2021/03/24 02:41:25;;;;;;;;;;;;;;;1.52;100.00;97133.53;5039617;28;20072;-55
2021/03/24 02:43:53;;;;;;;21.92;14.57;;;;;;;1.64;100.00;97124.28;4999745;28;20360;-57
2021/03/24 02:46:21;;;;;;;28.35;15.55;;;;;;;1.29;100.00;97129.41;5045324;28;20526;-58
2021/03/24 02:48:50;;;;;;;28.20;15.82;;;;;;;1.47;100.00;97127.69;5005890;28;20068;-58
2021/03/24 02:51:20;;;;;;;24.27;16.35;;;;;;;1.53;100.00;97122.22;5011914;28;20049;-56
2021/03/24 02:54:04;;;;;;;26.60;15.35;;;;;;;1.51;100.00;97126.63;4999891;28;20064;-60
2021/03/24 02:56:32;;;;;;;25.75;16.52;;;;;;;1.71;100.00;97117.03;5023899;28;20073;-57
2021/03/24 02:58:59;;;;;;;25.35;16.90;;;;;;;1.47;100.00;97127.69;5043355;28;20060;-60
2021/03/24 03:01:31;;;;;;;26.27;16.10;;;;;;;1.39;100.00;97137.63;4994771;28;20069;-58
2021/03/24 03:04:01;;;;;;;25.90;17.48;;;;;;;1.50;100.00;97132.75;5025784;28;20505;-61
2021/03/24 03:06:30;;;;;;;26.40;17.42;;;;;;;1.35;100.00;97130.88;4997152;28;20524;-59
2021/03/24 03:09:00;;;;;;;29.35;16.60;;;;;;;1.29;100.00;97129.41;5030725;28;20057;-60
2021/03/24 03:11:34;;;;;;;24.77;16.45;;;;;;;1.52;100.00;97133.53;5003364;28;20079;-58
2021/03/24 03:14:06;;;;;;;27.48;16.63;;;;;;;1.52;100.00;97136.13;5030044;28;20080;-60
2021/03/24 03:16:38;;;;;;;25.40;15.75;;;;;;;1.45;100.00;97132.13;5008224;28;20072;-57
2021/03/24 03:19:11;;;;;;;27.50;16.73;;;;;;;1.55;100.00;97130.78;5007378;28;20088;-59
2021/03/24 03:21:41;;;;;;;29.65;16.92;;;;;;;1.82;100.00;97130.34;5001226;28;20513;-56
2021/03/24 03:24:28;;;;;;;27.55;15.88;;;;;;;1.86;100.00;97129.31;5038366;28;20057;-57
2021/03/24 03:26:57;;;;;;;27.55;17.08;;;;;;;1.73;100.00;97131.66;4995171;28;20470;-59
2021/03/24 03:29:25;;;;;;;23.90;15.52;;;;;;;1.80;100.00;97132.22;5046028;28;20061;-58
2021/03/24 03:31:55;;;;;;;25.75;16.48;;;;;;;1.59;100.00;97137.53;4989656;28;20418;-58
2021/03/24 03:34:26;;;;;;;24.58;15.95;;;;;;;1.77;100.00;97134.94;5003878;28;20068;-59
2021/03/24 03:36:55;;;;;;;24.00;16.02;;;;;;;1.84;100.00;97136.34;4981651;28;20052;-60
2021/03/24 03:39:26;;;;;;;26.10;15.80;;;;;;;1.75;100.00;97139.38;5030291;28;20064;-59
2021/03/24 03:41:53;;;;;;;;;;;;;;;1.64;100.00;97145.94;4980413;28;20080;-58
2021/03/24 03:44:22;;;;;;;24.58;14.48;;;;;;;1.90;100.00;97141.25;5026376;28;19948;-59
2021/03/24 03:46:51;;;;;;;26.00;15.50;;;;;;;1.93;100.00;97146.31;4994388;28;20056;-59
2021/03/24 03:49:20;;;;;;;24.13;15.27;;;;;;;1.91;100.00;97142.94;5021912;28;20061;-58
2021/03/24 03:51:59;;;;;;;23.30;15.27;;;;;;;1.78;100.00;97147.03;4996743;28;20088;-57
2021/03/24 03:54:46;;;;;;;20.38;14.55;;;;;;;1.86;100.00;97145.75;5035238;28;20065;-59
2021/03/24 03:58:00;;;;;;;22.17;14.23;;;;;;;1.91;100.00;97142.94;4998134;28;20044;-56
2021/03/24 04:00:30;;;;;;;23.67;14.98;;;;;;;2.07;100.00;97140.44;5023892;28;20069;-58
2021/03/24 04:03:02;;;;;;;22.15;14.77;;;;;;;2.29;100.00;97134.97;4999915;28;20669;-57
2021/03/24 04:05:33;;;;;;;23.38;16.27;;;;;;;1.90;100.00;97138.66;5020325;28;20084;-58
2021/03/24 04:08:03;;;;;;;25.33;15.07;;;;;;;2.18;100.00;97137.28;4990888;28;20099;-59
2021/03/24 04:10:34;;;;;;;23.77;14.48;;;;;;;1.94;100.00;97142.78;5019305;28;20072;-58
2021/03/24 04:13:02;;;;;;;;;;;;;;;1.73;100.00;97136.84;4991770;28;20077;-58
2021/03/24 04:15:30;;;;;;;25.90;15.13;;;;;;;1.59;100.00;97141.88;5019093;28;19959;-59
2021/03/24 04:18:02;;;;;;;23.08;15.82;;;;;;;1.56;100.00;97144.63;4990686;28;20546;-59
2021/03/24 04:20:31;;;;;;;24.77;14.10;;;;;;;1.61;100.00;97145.22;5022404;28;20084;-54
2021/03/24 04:22:59;;;;;;;25.73;15.40;;;;;;;1.49;100.00;97149.25;4997615;28;20085;-58
2021/03/24 04:25:29;;;;;;;22.38;14.45;;;;;;;1.52;100.00;97151.72;5025133;28;20080;-59
2021/03/24 04:27:57;;;;;;;;;;;;;;;1.52;100.00;97153.47;4995988;28;21163;-58
2021/03/24 04:30:28;;;;;;;21.75;14.68;;;;;;;1.58;100.00;97154.03;5019570;28;19949;-59
2021/03/24 04:32:56;;;;;;;23.88;15.00;;;;;;;1.23;100.00;97153.06;5005104;28;20792;-59
2021/03/24 04:35:24;;;;;;;23.63;14.25;;;;;;;1.53;100.00;97150.81;5022083;28;20088;-58
2021/03/24 04:37:55;;;;;;;24.15;16.23;;;;;;;1.60;100.00;97147.00;5019185;28;20452;-58
2021/03/24 04:40:27;;;;;;;;;;;;;;;1.58;100.00;97145.38;4995528;28;20065;-59
2021/03/24 04:42:59;;;;;;;25.55;15.40;;;;;;;1.46;100.00;97148.56;5018496;28;19967;-60
2021/03/24 04:45:33;;;;;;;23.52;14.95;;;;;;;1.52;100.00;97143.09;5000485;28;20066;-56
2021/03/24 04:48:03;;;;;;;29.23;15.15;;;;;;;1.41;100.00;97152.22;5023291;28;20056;-59
2021/03/24 04:50:34;;;;;;;25.95;15.23;;;;;;;1.31;100.00;97145.78;4979938;28;20081;-59
2021/03/24 04:53:05;;;;;;;24.02;14.98;;;;;;;1.37;100.00;97153.25;5032115;28;20508;-59
2021/03/24 04:55:35;;;;;;;24.08;15.15;;;;;;;1.47;100.00;97156.28;4987557;28;20084;-56
2021/03/24 04:58:04;;;;;;;27.40;15.95;;;;;;;1.41;100.00;97153.97;5024832;28;20057;-59
2021/03/24 05:00:36;;;;;;;25.65;15.90;;;;;;;1.40;100.00;97157.47;4994688;28;20523;-58
2021/03/24 05:03:08;;;;;;;23.63;14.73;;;;;;;1.48;100.00;97159.72;5034408;28;20065;-60
2021/03/24 05:05:40;;;;;;;23.92;15.07;;;;;;;1.64;100.00;97152.88;4992810;28;20087;-59
2021/03/24 05:08:14;;;;;;;24.40;15.15;;;;;;;1.54;100.00;97155.06;5012673;28;20108;-59
2021/03/24 05:10:42;;;;;;;30.50;14.60;;;;;;;1.49;100.00;97156.22;4984115;28;20069;-59
2021/03/24 05:13:29;;;;;;;27.27;15.23;;;;;;;1.27;100.00;97156.34;5020140;28;20061;-58
2021/03/24 05:16:00;;;;;;;24.75;13.90;;;;;;;1.13;100.00;97162.19;4991852;28;20087;-58
2021/03/24 05:18:28;;;;;;;21.27;13.93;;;;;;;1.39;100.00;97164.44;5022436;28;20488;-57
2021/03/24 05:21:01;;;;;;;22.25;15.48;;;;;;;1.35;100.00;97159.47;4993451;28;20064;-58
2021/03/24 05:23:30;;;;;;;20.80;14.13;;;;;;;1.29;100.00;97168.38;5015708;28;20086;-59
2021/03/24 05:26:03;;;;;;;24.33;14.70;;;;;;;1.51;100.00;97169.97;4994761;28;20096;-59
2021/03/24 05:28:31;;;;;;;;;;;;;;;1.60;100.00;97167.78;5020551;28;20065;-58
2021/03/24 05:31:02;;;;;;;22.58;14.32;;;;;;;1.75;100.00;97174.00;5002075;28;19956;-59
2021/03/24 05:33:31;;;;;;;24.73;14.57;;;;;;;2.14;100.00;97166.06;5016417;28;20091;-60
2021/03/24 05:36:02;;;;;;;23.83;14.43;;;;;;;2.01;100.00;97169.34;4995788;28;20057;-59
2021/03/24 05:38:36;;;;;;;22.45;13.57;;;;;;;2.24;100.00;97170.81;5021435;28;20074;-59
2021/03/24 05:41:09;;;;;;;22.75;14.40;;;;;;;2.15;100.00;97172.09;5000067;28;20085;-59
2021/03/24 05:43:48;;;;;;;23.08;15.23;;;;;;;2.43;100.00;97174.16;5023592;28;20468;-56
2021/03/24 05:46:23;;;;;;;23.48;15.85;;;;;;;2.64;100.00;97171.41;5003313;28;20080;-59
2021/03/24 05:48:57;;;;;;;21.48;14.25;;;;;;;2.82;100.00;97171.31;5035878;28;20060;-58
2021/03/24 05:51:30;;;;;;;20.52;13.80;;;;;;;2.89;100.00;97166.63;5002072;28;20077;-59
2021/03/24 05:54:19;;;;;;;23.25;14.15;;;;;;;2.93;100.00;97175.13;5034854;28;20067;-59
2021/03/24 05:57:24;;;;;;;22.63;14.07;;;;;;;2.66;100.00;97173.00;4991213;28;20076;-55
2021/03/24 06:00:01;;;;;;;20.42;13.95;;;;;;;2.63;100.00;97183.59;4945933;28;20082;-57
2021/03/24 06:02:47;;;;;;;24.20;14.60;;;;;;;2.85;100.00;97175.50;4926589;28;20082;-60
2021/03/24 06:05:20;;;;;;;21.95;14.13;;;;;;;3.01;100.00;97172.94;4995702;28;20089;-56
2021/03/24 06:08:06;;;;;;;23.35;14.48;;;;;;;2.78;100.00;97169.75;4999380;28;20081;-58
2021/03/24 06:10:46;;;;;;;26.95;14.50;;;;;;;2.36;100.00;97173.63;5032595;28;20527;-59
2021/03/24 06:13:46;;;;;;;21.08;14.18;;;;;;;2.84;100.00;97171.22;4994405;28;20061;-52
2021/03/24 06:16:51;;;;;;;20.88;14.25;;;;;;;2.67;100.00;97169.47;5022975;28;20065;-56
2021/03/24 06:19:38;;;;;;;22.02;13.43;;;;;;;2.79;100.00;97178.44;5031115;28;20064;-52
2021/03/24 06:22:15;;;;;;;23.40;14.05;;;;;;;2.71;100.00;97178.81;5000236;28;20072;-58
2021/03/24 06:24:58;;;;;;;26.38;14.50;;;;;;;3.23;100.00;97173.47;5034632;28;20070;-58
2021/03/24 06:27:48;;;;;;;22.85;14.45;;;;;;;3.28;100.00;97168.03;5004370;28;20113;-57
2021/03/24 06:30:24;;;;;;;22.10;13.98;;;;;;;3.42;100.00;97169.91;5022165;28;20464;-56
2021/03/24 06:33:20;;;;;;;22.92;14.63;;;;;;;3.05;100.00;97171.84;4994663;28;20080;-58
2021/03/24 06:35:59;;;;;;;27.50;15.05;;;;;;;3.60;100.00;97173.28;5036620;28;20132;-57
2021/03/24 06:38:53;;;;;;;23.08;14.60;;;;;;;3.64;100.00;97172.16;5000402;28;20068;-57
2021/03/24 06:41:40;;;;;;;24.58;14.63;;;;;;;3.58;100.00;97170.75;5036927;28;20545;-58
2021/03/24 06:44:31;;;;;;;25.55;15.18;;;;;;;3.97;100.00;97177.28;5004492;28;20690;-55
2021/03/24 06:47:02;;;;;;;21.00;14.38;;;;;;;3.71;100.00;97182.16;5013675;28;20252;-49
2021/03/24 06:49:36;;;;;;;52.70;31.98;;;;;;;3.93;100.00;97187.06;5001572;28;20511;-58
2021/03/24 06:52:42;;;;;;;24.55;16.20;;;;;;;3.95;100.00;97181.75;5022012;28;20072;-56
2021/03/24 06:55:39;;;;;;;24.45;14.82;;;;;;;4.22;100.00;97174.13;4995690;28;20057;-57
2021/03/24 06:58:17;;;;;;;22.63;14.43;;;;;;;4.08;100.00;97179.28;5041925;28;20650;-58
2021/03/24 07:01:12;;;;;;;25.52;14.88;;;;;;;4.27;100.00;97183.38;4993680;28;20061;-57
2021/03/24 07:04:11;;;;;;;24.65;15.18;;;;;;;4.22;100.00;97187.19;5022513;28;20058;-57
2021/03/24 07:06:49;;;;;;;23.98;14.95;;;;;;;4.71;100.00;97190.41;5044057;28;20090;-59
2021/03/24 07:09:24;;;;;;;24.63;16.92;;;;;;;5.01;100.00;97184.28;4988688;28;20069;-56
2021/03/24 07:12:01;;;;;;;27.88;15.35;;;;;;;5.22;100.00;97184.75;5037528;28;20053;-59
2021/03/24 07:15:05;;;;;;;23.38;15.52;;;;;;;5.00;100.00;97191.28;5002398;28;20088;-58
2021/03/24 07:18:05;;;;;;;22.13;14.48;;;;;;;4.70;100.00;97199.16;5025943;28;20107;-56
2021/03/24 07:20:38;;;;;;;;;;;;;;;4.77;100.00;97202.25;4998390;28;20088;-56
2021/03/24 07:23:39;;;;;;;22.67;14.57;;;;;;;5.26;100.00;97193.25;5033270;28;20406;-57
2021/03/24 07:26:12;;;;;;;23.48;15.05;;;;;;;5.47;100.00;97197.16;4981503;28;20135;-58
2021/03/24 07:28:49;;;;;;;24.77;15.10;;;;;;;5.04;100.00;97204.16;5038780;28;20463;-57
2021/03/24 07:31:49;;;;;;;24.80;14.57;;;;;;;5.47;100.00;97198.00;4997300;28;20444;-56
2021/03/24 07:34:30;;;;;;;23.13;14.70;;;;;;;5.88;100.00;97198.94;5022990;28;20071;-58
2021/03/24 07:37:33;;;;;;;21.83;14.20;;;;;;;5.34;100.00;97206.72;5009572;28;20065;-56
2021/03/24 07:40:18;;;;;;;27.20;15.15;;;;;;;5.94;100.00;97191.56;5007952;28;20061;-58
2021/03/24 07:42:54;;;;;;;27.15;15.90;;;;;;;6.30;100.00;97194.56;5028224;28;20069;-58
2021/03/24 07:45:34;;;;;;;24.33;15.57;;;;;;;6.25;100.00;97201.88;5016938;28;20643;-57
2021/03/24 07:48:27;;;;;;;21.13;14.70;;;;;;;6.05;100.00;97206.59;5022258;28;20096;-58
2021/03/24 07:51:03;;;;;;;23.35;15.65;;;;;;;6.08;100.00;97205.56;5000374;28;20488;-56
2021/03/24 07:53:38;;;;;;;22.30;14.15;;;;;;;6.62;100.00;97203.75;5032535;28;20091;-58
2021/03/24 07:56:14;;;;;;;23.23;14.90;;;;;;;6.37;100.00;97214.19;4999029;28;20092;-57
2021/03/24 07:59:02;;;;;;;24.02;14.98;;;;;;;6.29;100.00;97209.41;5043305;28;20565;-57
2021/03/24 08:01:36;;;;;;;24.20;15.35;;;;;;;6.85;100.00;97209.25;4992061;28;20068;-58
2021/03/24 08:04:17;;;;;;;24.05;14.63;;;;;;;7.02;100.00;97208.09;5031037;28;20072;-55
2021/03/24 08:06:50;;;;;;;;;;;;;;;7.39;100.00;97203.78;4998106;28;20096;-53
2021/03/24 08:09:36;;;;;;;23.48;13.77;;;;;;;7.30;100.00;97202.66;5014173;28;19972;-56
2021/03/24 08:12:13;;;;;;;25.30;15.13;;;;;;;7.45;100.00;97192.84;4996236;28;20065;-58
2021/03/24 08:14:57;;;;;;;23.95;15.02;;;;;;;7.63;100.00;97195.97;5029257;28;20097;-58
2021/03/24 08:17:33;;;;;;;24.00;14.88;;;;;;;7.31;100.00;97198.22;5001457;28;20108;-58
2021/03/24 08:20:18;;;;;;;24.55;14.98;;;;;;;7.88;100.00;97194.22;5029205;28;20489;-55
2021/03/24 08:22:55;;;;;;;23.33;15.05;;;;;;;7.30;100.00;97200.03;4997713;28;20073;-59
2021/03/24 08:25:33;;;;;;;25.20;15.32;;;;;;;7.90;100.00;97200.22;5031316;28;20227;-59
2021/03/24 08:28:27;;;;;;;21.20;13.80;;;;;;;8.09;100.00;97193.53;5002615;28;20072;-57
2021/03/24 08:31:11;;;;;;;20.77;14.13;;;;;;;7.86;100.00;97194.34;5019281;28;20636;-58
2021/03/24 08:34:00;;;;;;;21.50;14.15;;;;;;;7.19;100.00;97192.06;4997636;28;20062;-56
2021/03/24 08:36:39;;;;;;;23.40;13.98;;;;;;;8.26;96.47;97194.09;5032837;28;20060;-59
2021/03/24 08:39:31;;;;;;;23.13;15.23;;;;;;;8.03;100.00;97188.72;4992946;28;20155;-59
2021/03/24 08:42:32;;;;;;;21.92;14.32;;;;;;;8.24;94.72;97185.50;5026591;28;20538;-59
2021/03/24 08:45:04;;;;;;;21.40;13.43;;;;;;;7.74;83.93;97182.09;5016911;28;20061;-58
2021/03/24 08:47:33;;;;;;;24.23;13.73;;;;;;;8.59;81.16;97182.91;5026716;28;20083;-59
2021/03/24 08:50:02;;;;;;;22.42;14.27;;;;;;;8.15;87.33;97192.25;5010572;28;20076;-59
2021/03/24 08:52:35;;;;;;;22.05;14.10;;;;;;;8.71;84.95;97187.25;5022029;28;20482;-60
2021/03/24 08:55:16;;;;;;;23.20;14.98;;;;;;;8.48;92.00;97188.97;5000459;28;20590;-57
2021/03/24 08:58:03;;;;;;;22.63;14.38;;;;;;;8.70;90.51;97182.09;5028056;28;20069;-54
2021/03/24 09:00:58;;;;;;;23.38;14.27;;;;;;;8.74;83.11;97183.53;4995478;28;20073;-58
2021/03/24 09:04:05;;;;;;;23.83;14.95;;;;;;;8.44;84.17;97184.06;4996351;28;20472;-54
2021/03/24 09:06:39;;;;;;;22.83;14.30;;;;;;;8.78;83.25;97177.13;5037366;28;20075;-59
2021/03/24 09:09:17;;;;;;;23.17;14.32;;;;;;;8.92;83.20;97176.06;4994471;28;20152;-58
2021/03/24 09:11:59;;;;;;;24.45;14.60;;;;;;;9.06;81.79;97172.41;5041451;28;20088;-61
2021/03/24 09:14:33;;;;;;;23.13;14.95;;;;;;;9.38;85.26;97165.47;4998758;28;20085;-58
2021/03/24 09:17:35;;;;;;;24.27;14.10;;;;;;;8.62;87.43;97172.16;5031621;28;20456;-57
2021/03/24 09:20:43;;;;;;;20.65;13.68;;;;;;;9.23;79.02;97169.31;5001048;28;20064;-60
2021/03/24 09:23:36;;;;;;;22.42;13.85;;;;;;;8.84;83.90;97175.81;5029585;28;20348;-58
2021/03/24 09:26:21;;;;;;;21.23;13.45;;;;;;;8.78;85.13;97177.13;4984589;28;21572;-55
2021/03/24 09:29:29;;;;;;;24.38;14.55;;;;;;;8.81;86.24;97171.63;5027292;28;20470;-57
2021/03/24 09:32:06;;;;;;;20.90;13.15;;;;;;;9.31;84.31;97168.69;5024049;28;20069;-58
2021/03/24 09:34:52;;;;;;;22.88;14.70;;;;;;;9.28;88.38;97169.78;5007121;28;20069;-58
2021/03/24 09:37:23;;;;;;;21.52;13.70;;;;;;;9.08;87.46;97170.47;5041437;28;20076;-58
2021/03/24 09:39:52;;;;;;;20.48;13.85;;;;;;;9.34;85.88;97168.47;4988590;28;20080;-58
2021/03/24 09:42:25;;;;;;;24.08;15.93;;;;;;;9.30;88.42;97153.88;5034338;28;20069;-56
2021/03/24 09:45:06;;;;;;;22.00;14.02;;;;;;;9.76;81.87;97153.69;5031956;28;20061;-53
2021/03/24 09:47:40;;;;;;;22.08;14.57;;;;;;;9.90;78.57;97149.97;5031196;28;20088;-56
2021/03/24 09:50:23;;;;;;;22.05;14.65;;;;;;;9.89;78.67;97148.28;5021735;28;20416;-59
2021/03/24 09:52:56;;;;;;;23.05;14.73;;;;;;;10.42;84.63;97148.38;5024665;28;20061;-60
2021/03/24 09:55:29;;;;;;;21.45;13.98;;;;;;;10.29;82.68;97147.72;5012251;28;20519;-57
2021/03/24 09:58:12;;;;;;;21.77;13.90;;;;;;;10.23;80.65;97143.75;5031182;28;20069;-59
2021/03/24 10:00:50;;;;;;;21.65;14.02;;;;;;;9.83;80.46;97131.19;5005043;28;20499;-56
2021/03/24 10:03:39;;;;;;;22.67;14.00;;;;;;;10.26;76.57;97137.44;5038356;28;20069;-60
2021/03/24 10:06:10;;;;;;;23.25;13.90;;;;;;;9.80;81.51;97134.06;4962788;28;20081;-56
2021/03/24 10:08:42;;;;;;;19.75;13.60;;;;;;;9.84;82.68;97139.91;5016759;28;20081;-59
2021/03/24 10:11:13;;;;;;;20.08;13.65;;;;;;;10.51;72.98;97129.16;5001793;28;20076;-57
2021/03/24 10:13:47;;;;;;;21.50;14.13;;;;;;;10.88;72.50;97123.44;5023562;28;20107;-58
2021/03/24 10:16:21;;;;;;;19.50;12.70;;;;;;;10.63;74.48;97128.16;5012954;28;20065;-59
2021/03/24 10:18:55;;;;;;;22.42;13.07;;;;;;;10.45;74.55;97125.22;5029446;28;20511;-59
2021/03/24 10:21:26;;;;;;;23.55;14.32;;;;;;;9.88;83.72;97115.03;5016277;28;20073;-58
2021/03/24 10:23:56;;;;;;;23.92;14.57;;;;;;;9.52;84.46;97117.00;5030116;28;20482;-59
2021/03/24 10:26:26;;;;;;;23.57;14.90;;;;;;;10.21;86.41;97114.03;5030792;28;20077;-59
2021/03/24 10:28:57;;;;;;;23.20;14.65;;;;;;;10.30;80.31;97112.50;5008859;28;20725;-57
2021/03/24 10:31:26;;;;;;;;;;;;;;;10.48;78.44;97110.97;5022757;28;20104;-59
2021/03/24 10:33:57;;;;;;;24.50;14.40;;;;;;;10.23;82.13;97109.50;5000389;28;20390;-58
2021/03/24 10:36:29;;;;;;;22.88;14.18;;;;;;;10.85;77.07;97103.44;5034089;28;20629;-58
2021/03/24 10:39:04;;;;;;;21.70;13.68;;;;;;;11.20;87.14;97102.19;4989194;28;20064;-57
2021/03/24 10:41:49;;;;;;;23.30;13.82;;;;;;;10.95;81.91;97102.66;5039114;28;20464;-56
2021/03/24 10:44:22;;;;;;;22.48;13.50;;;;;;;10.51;79.70;97102.78;4995890;28;20085;-57
2021/03/24 10:47:04;;;;;;;23.00;13.18;;;;;;;10.32;76.87;97103.47;5036535;28;20100;-56
2021/03/24 10:49:38;;;;;;;20.85;13.52;;;;;;;11.15;71.24;97092.06;5007500;28;20072;-53
2021/03/24 10:52:12;;;;;;;20.85;13.48;;;;;;;11.05;69.78;97091.16;5027058;28;20076;-54
2021/03/24 10:54:47;;;;;;;21.13;13.32;;;;;;;11.04;69.25;97081.56;5012698;28;20072;-58
2021/03/24 11:00:41;;;;;;;21.48;13.50;;;;;;;10.73;74.31;97079.88;5007068;28;20064;-58
2021/03/24 11:03:39;;;;;;;22.00;13.88;;;;;;;10.79;75.27;97069.66;4943778;28;20095;-58
2021/03/24 11:06:17;;;;;;;23.15;13.73;;;;;;;10.69;71.71;97074.88;5003035;28;20045;-59
2021/03/24 11:08:46;;;;;;;22.13;13.40;;;;;;;11.10;75.81;97075.75;5001712;28;20081;-58
2021/03/24 11:11:17;;;;;;;24.37;14.23;;;;;;;11.09;75.64;97074.09;5034947;28;20069;-58
2021/03/24 11:13:52;;;;;;;22.10;14.55;;;;;;;10.91;70.34;97070.41;5000080;28;20238;-58
2021/03/24 11:16:26;;;;;;;19.65;14.27;;;;;;;11.02;73.35;97062.41;5041543;28;20476;-60
2021/03/24 11:19:07;;;;;;;26.65;14.65;;;;;;;11.60;71.87;97052.03;4999062;28;20523;-60
2021/03/24 11:21:43;;;;;;;20.48;13.68;;;;;;;11.40;70.16;97050.31;5031512;28;20080;-60
2021/03/24 11:24:27;;;;;;;23.38;15.25;;;;;;;11.62;77.60;97054.50;4993789;28;22934;-58
2021/03/24 11:27:13;;;;;;;20.52;13.07;;;;;;;11.43;65.58;97050.03;5021210;28;20493;-58
2021/03/24 11:29:53;;;;;;;20.67;13.98;;;;;;;11.40;65.27;97047.66;5004477;28;20088;-60
2021/03/24 11:32:57;;;;;;;22.00;14.88;;;;;;;10.97;69.34;97042.66;5036337;28;20076;-59
2021/03/24 11:35:30;;;;;;;19.27;12.13;;;;;;;10.93;68.77;97036.78;4997805;28;20378;-57
2021/03/24 11:38:07;;;;;;;21.70;14.48;;;;;;;11.25;72.80;97044.56;5028302;28;20144;-59
2021/03/24 11:40:40;;;;;;;19.48;13.30;;;;;;;11.38;70.96;97039.03;4988605;28;20065;-58
2021/03/24 11:43:16;;;;;;;24.27;15.57;;;;;;;11.37;69.94;97037.38;5033134;28;20065;-59
2021/03/24 11:45:45;;;;;;;23.75;14.82;;;;;;;11.65;71.77;97035.75;4997287;28;20463;-60
2021/03/24 11:48:34;;;;;;;26.90;15.52;;;;;;;11.60;65.19;97022.97;5025683;28;20066;-57
2021/03/24 11:51:09;;;;;;;22.02;13.10;;;;;;;11.86;85.77;97023.28;5002597;28;20053;-61
2021/03/24 11:53:46;;;;;;;22.90;15.90;;;;;;;11.60;77.22;97030.06;5025589;28;20072;-60
2021/03/24 11:56:20;;;;;;;22.65;15.93;;;;;;;12.02;83.65;97013.97;5003822;28;20064;-60
2021/03/24 11:58:50;;;;;;;22.80;14.40;;;;;;;12.02;61.13;97011.31;5035215;28;20068;-55
2021/03/24 12:01:35;;;;;;;24.88;15.05;;;;;;;12.24;64.53;96999.59;4994231;28;20068;-61
2021/03/24 12:04:19;;;;;;;23.67;14.52;;;;;;;12.09;69.95;97000.03;5025225;28;20073;-60
2021/03/24 12:06:59;;;;;;;20.83;13.32;;;;;;;11.77;65.62;96994.19;5000819;28;20072;-57